createdAt,value
2022-11-14T00:01:49.598Z,1.00
2022-11-14T00:07:21.415Z,1.00
2022-11-14T00:12:53.192Z,0.00
2022-11-14T00:18:24.919Z,0.00
2022-11-14T00:23:56.831Z,0.00
2022-11-14T00:29:28.546Z,1.00
2022-11-14T00:35:00.368Z,1.00
2022-11-14T00:40:31.933Z,0.00
2022-11-14T00:46:03.496Z,1.00
2022-11-14T00:51:35.325Z,0.00
2022-11-14T00:57:07.186Z,0.00
2022-11-14T01:02:38.929Z,0.00
2022-11-14T01:08:10.695Z,1.00
2022-11-14T01:13:42.188Z,0.00
2022-11-14T01:19:14.233Z,1.00
2022-11-14T01:24:45.832Z,1.00
2022-11-14T01:30:17.574Z,1.00
2022-11-14T01:35:49.400Z,0.00
2022-11-14T01:41:21.237Z,0.00
2022-11-14T01:46:53.253Z,1.00
2022-11-14T01:52:24.942Z,1.00
2022-11-14T01:57:56.871Z,0.00
2022-11-14T02:03:28.506Z,1.00
2022-11-14T02:09:00.743Z,1.00
2022-11-14T02:14:33.638Z,0.00
2022-11-14T02:20:05.834Z,0.00
2022-11-14T02:25:37.134Z,0.00
2022-11-14T02:31:09.152Z,0.00
2022-11-14T02:36:41.344Z,0.00
2022-11-14T02:42:13.013Z,1.00
2022-11-14T02:47:44.883Z,1.00
2022-11-14T02:53:16.587Z,0.00
2022-11-14T02:58:48.321Z,0.00
2022-11-14T03:04:20.076Z,0.00
2022-11-14T03:09:51.489Z,1.00
2022-11-14T03:15:22.830Z,0.00
2022-11-14T03:20:54.116Z,1.00
2022-11-14T03:26:25.431Z,0.00
2022-11-14T03:31:56.889Z,1.00
2022-11-14T03:37:28.675Z,0.00
2022-11-14T03:43:00.831Z,1.00
2022-11-14T03:48:32.657Z,0.00
2022-11-14T03:54:05.291Z,0.00
2022-11-14T04:05:06.579Z,0.00
2022-11-14T04:16:07.638Z,1.00
2022-11-14T04:21:39.432Z,1.00
2022-11-14T04:27:11.116Z,1.00
2022-11-14T04:32:42.905Z,0.00
2022-11-14T04:38:14.777Z,1.00
2022-11-14T04:43:50.816Z,1.00
2022-11-14T04:49:18.634Z,0.00
2022-11-14T04:54:52.482Z,0.00
2022-11-14T05:00:24.268Z,1.00
2022-11-14T05:05:55.860Z,0.00
2022-11-14T05:11:29.355Z,1.00
2022-11-14T05:16:59.605Z,1.00
2022-11-14T05:22:31.213Z,1.00
2022-11-14T05:28:03.126Z,1.00
2022-11-14T05:33:34.872Z,0.00
2022-11-14T05:39:08.956Z,1.00
2022-11-14T05:44:40.747Z,2.00
2022-11-14T05:50:12.392Z,7.00
2022-11-14T05:55:44.435Z,18.00
2022-11-14T06:01:16.100Z,40.00
2022-11-14T06:12:19.918Z,232.00
2022-11-14T06:17:51.481Z,340.00
2022-11-14T06:23:24.880Z,430.00
2022-11-14T06:28:54.897Z,606.00
2022-11-14T06:34:26.684Z,855.00
2022-11-14T06:39:58.447Z,1106.00
2022-11-14T06:45:30.564Z,1792.00
2022-11-14T06:51:02.152Z,2667.00
2022-11-14T07:02:03.261Z,4038.00
2022-11-14T07:07:35.115Z,3911.00
2022-11-14T07:13:06.866Z,3833.00
2022-11-14T07:18:38.536Z,5040.00
2022-11-14T07:24:10.346Z,4527.00
2022-11-14T07:29:42.249Z,7436.00
2022-11-14T07:35:13.791Z,5916.00
2022-11-14T07:40:45.947Z,5618.00
2022-11-14T07:46:17.578Z,7374.00
2022-11-14T07:51:49.525Z,7331.00
2022-11-14T07:57:21.584Z,6657.00
2022-11-14T08:02:53.484Z,8104.00
2022-11-14T08:13:56.179Z,8894.00
2022-11-14T08:19:27.963Z,9334.00
2022-11-14T08:24:59.853Z,6443.00
2022-11-14T08:30:31.698Z,9905.00
2022-11-14T08:36:04.185Z,10711.00
2022-11-14T08:38:27.403Z,11124.00
2022-11-14T08:43:58.906Z,12895.00
2022-11-14T08:55:01.647Z,18595.00
2022-11-14T09:00:33.488Z,22524.00
2022-11-14T09:06:05.435Z,14757.00
2022-11-14T09:11:37.360Z,12849.00
2022-11-14T09:17:09.363Z,16998.00
2022-11-14T09:22:40.972Z,15516.00
2022-11-14T09:33:44.542Z,20793.00
2022-11-14T09:39:16.474Z,22608.00
2022-11-14T09:44:48.303Z,23393.00
2022-11-14T09:50:25.428Z,20940.00
2022-11-14T09:55:59.746Z,19290.00
2022-11-14T10:01:37.633Z,19715.00
2022-11-14T10:07:09.183Z,15899.00
2022-11-14T10:12:41.234Z,20312.00
2022-11-14T10:18:19.322Z,16718.00
2022-11-14T10:23:57.609Z,22381.00
2022-11-14T10:29:29.802Z,23666.00
2022-11-14T10:35:02.202Z,16505.00
2022-11-14T10:40:34.068Z,18111.00
2022-11-14T10:46:12.063Z,18519.00
2022-11-14T10:51:44.526Z,18634.00
2022-11-14T10:57:16.480Z,17051.00
2022-11-14T11:02:48.193Z,22905.00
2022-11-14T11:08:41.988Z,19527.00
2022-11-14T11:13:52.646Z,19026.00
2022-11-14T11:19:24.720Z,17882.00
2022-11-14T11:24:56.601Z,17654.00
2022-11-14T11:30:34.640Z,20636.00
2022-11-14T11:36:06.487Z,11742.00
2022-11-14T11:47:10.790Z,10378.00
2022-11-14T11:52:42.667Z,10792.00
2022-11-14T11:58:14.678Z,10816.00
2022-11-14T12:03:46.907Z,11143.00
2022-11-14T12:09:42.588Z,11049.00
2022-11-14T12:14:57.045Z,11404.00
2022-11-14T12:20:29.003Z,11464.00
2022-11-14T12:26:00.930Z,11195.00
2022-11-14T12:31:32.948Z,11524.00
2022-11-14T12:37:05.017Z,11277.00
2022-11-14T12:42:36.894Z,11855.00
2022-11-14T12:48:08.775Z,11516.00
2022-11-14T12:53:40.525Z,11073.00
2022-11-14T12:59:12.466Z,11034.00
2022-11-14T13:04:49.947Z,11353.00
2022-11-14T13:15:57.237Z,11796.00
2022-11-14T13:21:29.373Z,11793.00
2022-11-14T13:27:01.612Z,12238.00
2022-11-14T13:32:33.584Z,11024.00
2022-11-14T13:38:05.643Z,10510.00
2022-11-14T13:49:07.412Z,9636.00
2022-11-14T13:54:39.448Z,8944.00
2022-11-14T14:00:14.238Z,7799.00
2022-11-14T14:05:49.791Z,6393.00
2022-11-14T14:11:21.966Z,6328.00
2022-11-14T14:16:53.645Z,6241.00
2022-11-14T14:22:26.013Z,4906.00
2022-11-14T14:27:58.008Z,4029.00
2022-11-14T14:33:30.047Z,4597.00
2022-11-14T14:39:02.052Z,4477.00
2022-11-14T14:44:34.115Z,3992.00
2022-11-14T14:50:06.395Z,3160.00
2022-11-14T14:55:38.513Z,2933.00
2022-11-14T15:01:10.625Z,2591.00
2022-11-14T15:06:42.379Z,2258.00
2022-11-14T15:12:14.121Z,1961.00
2022-11-14T15:17:45.499Z,1671.00
2022-11-14T15:23:17.814Z,1382.00
2022-11-14T15:28:49.964Z,976.00
2022-11-14T15:34:21.717Z,703.00
2022-11-14T15:39:53.943Z,427.00
2022-11-14T15:45:26.098Z,217.00
2022-11-14T15:50:57.764Z,108.00
2022-11-14T15:56:29.592Z,46.00
2022-11-14T16:02:01.452Z,23.00
2022-11-14T16:07:33.719Z,14.00
2022-11-14T16:13:05.535Z,13.00
2022-11-14T16:18:37.590Z,11.00
2022-11-14T16:24:09.780Z,11.00
2022-11-14T16:29:41.893Z,11.00
2022-11-14T16:35:13.900Z,9.00
2022-11-14T16:40:45.935Z,12.00
2022-11-14T16:46:18.035Z,12.00
2022-11-14T16:51:50.290Z,12.00
2022-11-14T16:57:21.770Z,12.00
2022-11-14T17:02:53.992Z,12.00
2022-11-14T17:08:25.730Z,11.00
2022-11-14T17:13:57.834Z,1.00
2022-11-14T17:19:29.641Z,3.00
2022-11-14T17:25:01.589Z,2.00
2022-11-14T17:30:33.528Z,1.00
2022-11-14T17:36:05.476Z,2.00
2022-11-14T17:41:37.211Z,2.00
2022-11-14T17:47:09.105Z,2.00
2022-11-14T17:52:41.055Z,2.00
2022-11-14T17:58:13.346Z,2.00
2022-11-14T18:03:45.476Z,2.00
2022-11-14T18:09:16.952Z,2.00
2022-11-14T18:14:49.209Z,2.00
2022-11-14T18:20:20.962Z,2.00
2022-11-14T18:25:52.831Z,1.00
2022-11-14T18:31:24.981Z,2.00
2022-11-14T18:36:56.764Z,1.00
2022-11-14T18:42:28.650Z,1.00
2022-11-14T18:48:00.724Z,1.00
2022-11-14T18:53:32.890Z,1.00
2022-11-14T18:59:04.830Z,2.00
2022-11-14T19:04:36.863Z,1.00
2022-11-14T19:10:08.982Z,1.00
2022-11-14T19:15:40.977Z,2.00
2022-11-14T19:21:13.149Z,2.00
2022-11-14T19:26:45.805Z,2.00
2022-11-14T19:32:17.855Z,2.00
2022-11-14T19:37:49.931Z,2.00
2022-11-14T19:43:21.778Z,2.00
2022-11-14T19:48:53.870Z,2.00
2022-11-14T19:54:25.688Z,2.00
2022-11-14T19:59:57.829Z,2.00
2022-11-14T20:05:29.925Z,2.00
2022-11-14T20:11:01.861Z,2.00
2022-11-14T20:16:33.604Z,1.00
2022-11-14T20:24:18.770Z,1.00
2022-11-14T20:29:50.212Z,2.00
2022-11-14T20:35:21.872Z,2.00
2022-11-14T20:40:54.094Z,2.00
2022-11-14T20:46:25.813Z,1.00
2022-11-14T20:51:57.452Z,3.00
2022-11-14T20:57:29.390Z,2.00
2022-11-14T21:03:01.612Z,2.00
2022-11-14T21:08:33.697Z,1.00
2022-11-14T21:14:05.001Z,2.00
2022-11-14T21:19:37.009Z,1.00
2022-11-14T21:25:08.681Z,1.00
2022-11-14T21:30:40.356Z,1.00
2022-11-14T21:36:38.147Z,1.00
2022-11-14T21:41:44.243Z,1.00
2022-11-14T21:47:15.900Z,2.00
2022-11-14T21:52:47.670Z,2.00
2022-11-14T21:58:19.266Z,2.00
2022-11-14T22:03:51.474Z,1.00
2022-11-14T22:09:23.401Z,2.00
2022-11-14T22:14:55.091Z,1.00
2022-11-14T22:20:26.745Z,1.00
2022-11-14T22:25:58.752Z,2.00
2022-11-14T22:31:30.558Z,1.00
2022-11-14T22:37:02.481Z,2.00
2022-11-14T22:42:34.076Z,1.00
2022-11-14T22:48:05.868Z,2.00
2022-11-14T22:53:37.608Z,0.00
2022-11-14T22:59:09.517Z,2.00
2022-11-14T23:04:41.425Z,1.00
2022-11-14T23:10:13.084Z,0.00
2022-11-14T23:15:44.795Z,0.00
2022-11-14T23:21:16.718Z,0.00
2022-11-14T23:26:48.556Z,0.00
2022-11-14T23:32:20.439Z,1.00
2022-11-14T23:37:52.158Z,0.00
2022-11-14T23:43:24.015Z,0.00
2022-11-14T23:48:55.729Z,1.00
2022-11-14T23:59:56.988Z,0.00
